Time;durP1;ratioP1;P1;durP2;ratioP2;P2;SDS_P1;SDS_P2;PMS_P1;PMS_P2;Temp;Humidity;BMP_temperature;BMP_pressure;BME280_temperature;BME280_humidity;BME280_pressure;Samples;Min_cycle;Max_cycle;Signal;HPM_P1;HPM_P2
2023/04/19 00:00:29;;;;;;;5.77;5.00;;;14.50;82.20;;;;;;4991762;28;20448;-83
2023/04/19 00:02:56;;;;;;;6.60;5.70;;;14.50;82.00;;;;;;4990753;28;20494;-83
2023/04/19 00:05:23;;;;;;;6.40;5.80;;;14.40;82.60;;;;;;4990139;28;20491;-83
2023/04/19 00:07:50;;;;;;;6.37;5.77;;;14.30;82.30;;;;;;4986725;28;20495;-85
2023/04/19 00:10:17;;;;;;;6.23;5.63;;;14.30;83.50;;;;;;4987811;28;20432;-83
2023/04/19 00:12:44;;;;;;;6.40;5.53;;;14.30;83.00;;;;;;4987345;28;20440;-83
2023/04/19 00:15:14;;;;;;;6.50;5.90;;;14.30;83.90;;;;;;4987930;28;20466;-84
2023/04/19 00:17:41;;;;;;;6.10;5.50;;;14.30;83.50;;;;;;4972819;28;20484;-83
2023/04/19 00:20:10;;;;;;;7.50;5.50;;;14.30;83.30;;;;;;4986785;28;20462;-84
2023/04/19 00:22:37;;;;;;;7.00;5.93;;;14.30;83.90;;;;;;4978355;28;20475;-83
2023/04/19 00:25:05;;;;;;;6.83;6.20;;;14.30;84.10;;;;;;4960050;28;20488;-82
2023/04/19 00:27:32;;;;;;;6.10;5.47;;;14.30;84.50;;;;;;4949893;28;20567;-83
2023/04/19 00:29:59;;;;;;;6.43;5.80;;;14.30;85.00;;;;;;4968167;28;20530;-83
2023/04/19 00:32:30;;;;;;;6.00;5.40;;;14.40;84.80;;;;;;4965889;28;20448;-83
2023/04/19 00:35:05;;;;;;;6.30;5.57;;;14.30;84.20;;;;;;4968577;28;20981;-84
2023/04/19 00:37:35;;;;;;;6.00;5.40;;;14.30;84.80;;;;;;4970269;28;21023;-82
2023/04/19 00:40:03;;;;;;;6.70;5.57;;;14.40;84.90;;;;;;4973812;28;20494;-83
2023/04/19 00:42:30;;;;;;;5.50;5.00;;;14.40;84.50;;;;;;4989869;28;20466;-83
2023/04/19 00:45:01;;;;;;;5.87;5.27;;;14.20;84.50;;;;;;4989555;28;20535;-83
2023/04/19 00:47:37;;;;;;;6.17;5.37;;;14.40;85.10;;;;;;4979714;28;20478;-83
2023/04/19 00:50:08;;;;;;;7.37;5.67;;;14.30;85.40;;;;;;4963568;28;20436;-83
2023/04/19 00:52:46;;;;;;;7.13;6.30;;;14.50;85.60;;;;;;4966139;28;20487;-82
2023/04/19 00:55:17;;;;;;;5.00;4.50;;;14.40;85.30;;;;;;4967051;28;20451;-85
2023/04/19 00:57:47;;;;;;;5.73;5.23;;;14.40;85.00;;;;;;4960979;28;20490;-83
2023/04/19 01:00:18;;;;;;;5.50;5.00;;;14.40;85.30;;;;;;4965461;28;20447;-83
2023/04/19 01:02:46;;;;;;;7.97;5.60;;;14.40;85.10;;;;;;4965431;28;20448;-82
2023/04/19 01:05:21;;;;;;;5.00;4.57;;;14.40;85.30;;;;;;4966629;28;20555;-83
2023/04/19 01:08:05;;;;;;;6.00;5.10;;;14.40;85.80;;;;;;4968182;28;20488;-82
2023/04/19 01:10:37;;;;;;;5.47;4.90;;;14.50;86.10;;;;;;4981364;28;20463;-81
2023/04/19 01:13:12;;;;;;;5.97;5.30;;;14.40;86.20;;;;;;4966826;28;20543;-83
2023/04/19 01:15:46;;;;;;;4.67;4.27;;;14.30;86.00;;;;;;4966032;28;20474;-82
2023/04/19 01:18:31;;;;;;;6.13;5.20;;;14.30;86.70;;;;;;4966623;28;20467;-82
2023/04/19 01:21:04;;;;;;;5.53;5.03;;;14.40;86.60;;;;;;4967282;28;20435;-83
2023/04/19 01:23:47;;;;;;;5.70;5.10;;;14.30;86.70;;;;;;4967189;28;21483;-83
2023/04/19 01:26:40;;;;;;;5.80;5.23;;;14.30;87.40;;;;;;4965589;28;20478;-82
2023/04/19 01:29:12;;;;;;;6.00;5.00;;;14.50;87.30;;;;;;4965529;28;20476;-83
2023/04/19 01:32:06;;;;;;;5.07;4.57;;;14.50;87.00;;;;;;4977768;28;20492;-83
2023/04/19 01:34:44;;;;;;;5.93;5.33;;;14.50;86.70;;;;;;4969179;28;20470;-83
2023/04/19 01:40:26;;;;;;;7.50;5.40;;;14.50;86.90;;;;;;4970947;28;20476;-83
2023/04/19 01:43:00;;;;;;;6.20;5.60;;;14.40;87.40;;;;;;4969607;28;20491;-84
2023/04/19 01:45:35;;;;;;;5.23;4.80;;;14.20;87.80;;;;;;4966789;28;20458;-85
2023/04/19 01:48:10;;;;;;;5.63;5.13;;;14.10;88.20;;;;;;4969633;28;20475;-85
2023/04/19 01:50:39;;;;;;;5.07;4.60;;;14.00;89.00;;;;;;4965026;28;20455;-85
2023/04/19 01:53:26;;;;;;;5.70;4.17;;;14.20;89.30;;;;;;4952980;28;20468;-85
2023/04/19 01:55:56;;;;;;;5.50;5.00;;;14.10;89.10;;;;;;4969745;28;20456;-85
2023/04/19 01:58:34;;;;;;;5.27;4.77;;;14.20;89.60;;;;;;4973658;28;20471;-81
2023/04/19 02:01:11;;;;;;;4.97;4.47;;;14.10;89.90;;;;;;4966819;28;20505;-82
2023/04/19 02:03:54;;;;;;;6.37;4.73;;;14.00;90.40;;;;;;4965145;28;20570;-83
2023/04/19 02:06:35;;;;;;;5.30;4.80;;;14.00;90.60;;;;;;4960417;28;20511;-84
2023/04/19 02:09:03;;;;;;;5.80;5.20;;;13.90;90.50;;;;;;4962782;28;20491;-81
2023/04/19 02:11:36;;;;;;;6.97;5.50;;;13.90;90.70;;;;;;4963379;28;20472;-83
2023/04/19 02:14:06;;;;;;;5.77;5.20;;;13.90;90.70;;;;;;4966118;28;20465;-83
2023/04/19 02:16:58;;;;;;;5.60;5.10;;;14.00;91.00;;;;;;4966935;28;20503;-84
2023/04/19 02:19:38;;;;;;;5.43;4.90;;;13.80;91.00;;;;;;4969099;28;20471;-83
2023/04/19 02:22:08;;;;;;;5.73;5.07;;;13.90;91.30;;;;;;4967983;28;20460;-81
2023/04/19 02:24:36;;;;;;;5.93;5.40;;;14.10;91.10;;;;;;4966160;28;20556;-83
2023/04/19 02:27:06;;;;;;;6.10;5.60;;;14.00;91.10;;;;;;4968816;28;20897;-83
2023/04/19 02:29:36;;;;;;;5.70;5.20;;;14.00;91.30;;;;;;4979711;28;20998;-83
2023/04/19 02:32:15;;;;;;;6.17;5.57;;;14.10;91.40;;;;;;4965498;28;20566;-83
2023/04/19 02:34:42;;;;;;;6.67;5.63;;;14.20;91.40;;;;;;4966847;28;20478;-83
2023/04/19 02:37:18;;;;;;;6.47;5.77;;;14.10;91.20;;;;;;4972033;28;20491;-82
2023/04/19 02:40:00;;;;;;;6.43;5.40;;;14.20;91.40;;;;;;4972952;28;20468;-83
2023/04/19 02:42:29;;;;;;;5.70;5.20;;;14.20;91.40;;;;;;4972422;28;20494;-83
2023/04/19 02:45:10;;;;;;;6.47;5.83;;;14.30;91.30;;;;;;4971980;28;20488;-83
2023/04/19 02:47:46;;;;;;;7.07;6.13;;;14.20;91.40;;;;;;4977604;28;20523;-81
2023/04/19 02:50:24;;;;;;;8.03;6.60;;;14.20;91.50;;;;;;4987733;28;20452;-83
2023/04/19 02:53:02;;;;;;;7.13;6.43;;;14.00;91.70;;;;;;4989512;28;20456;-83
2023/04/19 02:55:35;;;;;;;7.30;6.70;;;14.20;91.90;;;;;;4990869;28;20529;-82
2023/04/19 02:58:21;;;;;;;7.03;6.33;;;14.20;91.70;;;;;;4990571;28;20443;-84
2023/04/19 03:01:08;;;;;;;7.67;6.90;;;14.10;91.90;;;;;;4931591;29;20481;-83
2023/04/19 03:03:49;;;;;;;7.93;7.00;;;14.10;91.80;;;;;;4932334;29;20479;-83
2023/04/19 03:06:40;;;;;;;7.67;6.73;;;14.20;91.60;;;;;;4932947;29;20530;-82
2023/04/19 03:09:15;;;;;;;9.27;8.37;;;14.20;91.30;;;;;;4933752;29;20529;-84
2023/04/19 03:11:47;;;;;;;10.27;9.27;;;14.30;91.00;;;;;;4933587;29;20494;-83
2023/04/19 03:14:25;;;;;;;10.00;8.30;;;14.10;91.20;;;;;;4918161;29;20495;-84
2023/04/19 03:16:54;;;;;;;10.43;9.07;;;14.00;91.70;;;;;;4934501;29;21161;-83
2023/04/19 03:19:29;;;;;;;9.83;8.83;;;14.10;91.90;;;;;;4917850;29;20455;-85
2023/04/19 03:22:05;;;;;;;9.80;8.63;;;14.00;92.20;;;;;;4931730;29;20443;-82
2023/04/19 03:24:34;;;;;;;9.87;8.87;;;13.80;92.30;;;;;;4916051;29;20493;-83
2023/04/19 03:27:09;;;;;;;11.10;9.33;;;13.90;92.90;;;;;;4929714;29;20554;-83
2023/04/19 03:29:41;;;;;;;9.23;8.33;;;13.70;92.60;;;;;;4913217;29;20438;-82
2023/04/19 03:32:14;;;;;;;10.17;9.20;;;13.70;92.90;;;;;;4928711;29;20574;-85
2023/04/19 03:34:54;;;;;;;9.43;8.53;;;13.90;93.20;;;;;;4926371;29;20502;-83
2023/04/19 03:37:38;;;;;;;9.47;8.57;;;13.80;92.80;;;;;;4922522;28;20540;-85
2023/04/19 03:40:10;;;;;;;9.73;8.90;;;13.90;92.70;;;;;;4979955;28;20468;-85
2023/04/19 03:43:21;;;;;;;9.63;8.67;;;14.00;92.80;;;;;;4958143;28;20500;-84
2023/04/19 03:46:09;;;;;;;12.67;8.07;;;13.80;92.80;;;;;;4983810;28;20830;-83
2023/04/19 03:48:41;;;;;;;8.43;7.63;;;13.70;93.10;;;;;;4961332;28;20457;-83
2023/04/19 03:51:34;;;;;;;7.80;7.03;;;13.90;93.50;;;;;;4966035;28;20460;-82
2023/04/19 03:54:33;;;;;;;7.93;7.23;;;13.60;93.70;;;;;;4981185;28;20540;-85
2023/04/19 03:57:05;;;;;;;9.17;8.27;;;13.70;94.00;;;;;;4966159;28;20583;-83
2023/04/19 03:59:34;;;;;;;8.47;7.63;;;13.70;94.20;;;;;;4968821;28;20498;-82
2023/04/19 04:02:19;;;;;;;8.50;7.70;;;13.60;94.20;;;;;;4982916;28;20534;-83
2023/04/19 04:04:53;;;;;;;8.90;8.00;;;13.50;94.60;;;;;;4975051;28;20479;-83
2023/04/19 04:07:24;;;;;;;9.70;8.67;;;13.60;94.80;;;;;;4954915;28;20488;-83
2023/04/19 04:10:03;;;;;;;8.43;7.67;;;13.60;94.80;;;;;;4981863;28;20448;-83
2023/04/19 04:12:38;;;;;;;10.37;8.63;;;13.50;95.00;;;;;;4982199;28;20452;-83
2023/04/19 04:15:11;;;;;;;10.23;8.33;;;13.80;95.00;;;;;;4996691;28;20476;-83
2023/04/19 04:17:39;;;;;;;10.97;9.60;;;13.80;95.00;;;;;;4983957;28;20468;-85
2023/04/19 04:20:07;;;;;;;8.53;7.73;;;13.70;95.00;;;;;;4982434;28;20475;-83
2023/04/19 04:22:34;;;;;;;9.60;8.70;;;13.80;95.00;;;;;;4982723;28;20718;-82
2023/04/19 04:25:02;;;;;;;9.60;8.23;;;13.60;95.00;;;;;;4981163;28;20492;-83
2023/04/19 04:27:32;;;;;;;9.60;8.70;;;13.70;95.30;;;;;;4982619;28;20460;-83
2023/04/19 04:30:08;;;;;;;10.50;9.50;;;13.70;95.20;;;;;;4977016;28;20480;-85
2023/04/19 04:32:40;;;;;;;10.63;9.30;;;13.60;95.10;;;;;;4980449;28;20460;-84
2023/04/19 04:35:19;;;;;;;9.37;8.47;;;13.50;95.40;;;;;;4978990;28;20463;-83
2023/04/19 04:37:55;;;;;;;9.60;8.60;;;13.60;95.60;;;;;;4978551;28;20542;-83
2023/04/19 04:40:54;;;;;;;9.50;8.60;;;13.80;95.20;;;;;;4972408;28;20464;-85
2023/04/19 04:43:28;;;;;;;10.13;9.13;;;13.70;95.30;;;;;;4961708;28;20529;-84
2023/04/19 04:46:06;;;;;;;9.70;8.60;;;13.90;95.10;;;;;;4970480;28;20568;-85
2023/04/19 04:48:36;;;;;;;11.87;9.53;;;13.70;95.00;;;;;;4970899;28;20444;-86
2023/04/19 04:51:11;;;;;;;10.90;9.80;;;13.80;94.90;;;;;;4973983;28;20464;-86
2023/04/19 04:53:41;;;;;;;15.47;9.47;;;13.60;94.80;;;;;;4971308;28;20460;-83
2023/04/19 04:56:10;;;;;;;11.20;9.43;;;13.80;94.90;;;;;;4974631;28;20507;-87
2023/04/19 04:58:38;;;;;;;10.60;9.50;;;13.60;95.00;;;;;;4991603;28;20468;-82
2023/04/19 05:01:10;;;;;;;10.30;9.20;;;13.60;95.40;;;;;;4976953;28;20480;-82
2023/04/19 05:03:39;;;;;;;10.57;9.47;;;13.60;95.60;;;;;;4978661;28;20540;-84
2023/04/19 05:06:09;;;;;;;10.50;9.40;;;13.60;95.40;;;;;;4979725;28;20558;-82
2023/04/19 05:08:57;;;;;;;9.93;8.93;;;13.70;95.00;;;;;;4978322;28;20486;-82
2023/04/19 05:11:33;;;;;;;10.70;9.60;;;13.50;95.10;;;;;;4970221;28;20456;-82
2023/04/19 05:14:01;;;;;;;11.60;10.40;;;13.40;95.50;;;;;;4970390;28;20471;-84
2023/04/19 05:16:39;;;;;;;12.00;9.30;;;13.50;95.70;;;;;;4967713;28;20471;-83
2023/04/19 05:19:29;;;;;;;10.03;9.13;;;13.70;95.60;;;;;;4969046;28;20546;-85
2023/04/19 05:22:06;;;;;;;10.13;9.23;;;13.60;95.40;;;;;;4966975;28;20491;-84
2023/04/19 05:24:49;;;;;;;11.00;9.90;;;13.60;95.40;;;;;;4979051;28;20490;-83
2023/04/19 05:27:27;;;;;;;12.23;9.67;;;13.60;95.30;;;;;;4967044;28;20829;-84
2023/04/19 05:29:57;;;;;;;10.80;9.67;;;13.60;95.40;;;;;;4969906;28;20460;-83
2023/04/19 05:32:29;;;;;;;9.93;8.97;;;13.70;95.10;;;;;;4966668;28;20638;-82
2023/04/19 05:34:57;;;;;;;10.40;9.30;;;13.50;94.90;;;;;;4967885;28;20543;-83
2023/04/19 05:37:30;;;;;;;10.83;9.20;;;13.70;95.10;;;;;;4967623;28;20468;-83
2023/04/19 05:40:28;;;;;;;10.50;9.50;;;13.70;94.50;;;;;;4964856;28;20514;-83
2023/04/19 05:43:02;;;;;;;10.13;9.13;;;13.70;94.60;;;;;;4958750;28;20460;-83
2023/04/19 05:45:44;;;;;;;11.50;9.87;;;13.90;94.10;;;;;;4965109;28;20503;-84
2023/04/19 05:48:18;;;;;;;11.77;8.80;;;13.80;93.70;;;;;;4963756;28;20527;-84
2023/04/19 05:50:56;;;;;;;11.03;9.50;;;13.80;93.80;;;;;;4967216;28;20484;-84
2023/04/19 05:53:34;;;;;;;10.10;9.10;;;13.80;93.60;;;;;;4974906;28;20463;-84
2023/04/19 05:56:07;;;;;;;10.80;9.70;;;13.50;93.80;;;;;;4968157;28;21050;-85
2023/04/19 05:58:45;;;;;;;10.00;9.00;;;13.40;94.10;;;;;;4970561;28;20971;-82
2023/04/19 06:01:17;;;;;;;10.23;9.23;;;13.50;93.90;;;;;;4985548;28;20482;-84
2023/04/19 06:04:10;;;;;;;10.80;9.73;;;13.50;94.00;;;;;;4971084;28;20468;-86
2023/04/19 06:07:10;;;;;;;11.03;9.93;;;13.40;94.00;;;;;;4980041;28;20467;-84
2023/04/19 06:10:05;;;;;;;14.33;10.13;;;13.70;94.00;;;;;;4985366;28;20472;-84
2023/04/19 06:12:44;;;;;;;13.63;8.90;;;13.70;94.00;;;;;;4991406;28;21063;-83
2023/04/19 06:15:32;;;;;;;8.90;8.10;;;13.70;93.90;;;;;;4971970;28;20491;-83
2023/04/19 06:18:12;;;;;;;;;;;;;;;;;;;;;
2023/04/19 06:21:05;;;;;;;11.50;8.40;;;13.90;93.00;;;;;;4941978;28;20445;-84
2023/04/19 06:23:41;;;;;;;10.47;9.47;;;13.70;93.00;;;;;;4961828;28;20570;-83
2023/04/19 06:26:35;;;;;;;10.27;9.27;;;13.80;93.00;;;;;;4983805;28;20932;-84
2023/04/19 06:29:38;;;;;;;9.70;8.57;;;13.80;92.90;;;;;;4979573;28;20467;-83
2023/04/19 06:32:39;;;;;;;43.40;40.37;;;13.60;93.10;;;;;;4982251;28;20460;-83
2023/04/19 06:35:26;;;;;;;;;;;;;;;;;;;;;
2023/04/19 06:38:31;;;;;;;8.37;7.50;;;13.60;92.50;;;;;;4972195;28;20471;-83
2023/04/19 06:41:22;;;;;;;8.77;7.97;;;13.80;91.80;;;;;;4973333;28;20452;-83
2023/04/19 06:44:28;;;;;;;;;;;;;;;;;;;;;
2023/04/19 06:47:52;;;;;;;9.93;7.63;;;13.80;92.00;;;;;;4988911;28;20476;-85
2023/04/19 06:50:34;;;;;;;8.13;6.90;;;13.60;91.90;;;;;;4984364;28;20464;-85
2023/04/19 06:53:06;;;;;;;7.90;7.13;;;13.70;91.60;;;;;;4982960;28;20454;-84
2023/04/19 06:58:43;;;;;;;7.97;6.10;;;13.80;90.80;;;;;;4967069;28;20463;-84
2023/04/19 07:01:49;;;;;;;7.20;6.50;;;13.80;90.80;;;;;;4966783;28;20475;-84
2023/04/19 07:05:04;;;;;;;6.43;5.83;;;13.90;90.50;;;;;;4965274;28;20480;-84
2023/04/19 07:07:52;;;;;;;7.10;6.40;;;13.70;90.50;;;;;;4962771;28;20484;-83
2023/04/19 07:11:36;;;;;;;14.87;7.20;;;13.90;90.50;;;;;;4960007;28;21326;-83
2023/04/19 07:14:28;;;;;;;;;;;;;;;;;;;;;
2023/04/19 07:17:03;;;;;;;6.47;5.40;;;14.20;88.50;;;;;;4957538;28;20493;-82
2023/04/19 07:19:56;;;;;;;8.43;6.90;;;14.20;87.30;;;;;;5025072;23;20491;-83
2023/04/19 07:22:42;;;;;;;5.97;5.47;;;14.20;87.70;;;;;;4962684;28;20547;-84
2023/04/19 07:25:39;;;;;;;6.60;5.40;;;14.90;86.90;;;;;;5105509;23;20564;-84
2023/04/19 07:29:02;;;;;;;5.60;5.10;;;15.70;84.50;;;;;;5371375;23;20488;-83
2023/04/19 07:31:58;;;;;;;6.80;5.10;;;16.60;80.00;;;;;;4953545;28;20456;-84
2023/04/19 07:34:55;;;;;;;5.77;5.20;;;18.30;78.50;;;;;;4969202;28;20751;-82
2023/04/19 07:40:33;;;;;;;5.00;4.57;;;23.60;56.70;;;;;;4979148;28;20542;-83
2023/04/19 07:43:52;;;;;;;5.43;4.90;;;25.00;52.90;;;;;;4968490;28;20459;-83
2023/04/19 07:47:16;;;;;;;5.87;5.37;;;26.60;47.40;;;;;;4977685;28;20495;-84
2023/04/19 07:50:12;;;;;;;5.10;4.60;;;26.50;45.90;;;;;;4973739;28;20456;-83
2023/04/19 07:53:05;;;;;;;4.73;4.33;;;28.10;43.50;;;;;;4979046;28;20475;-84
2023/04/19 07:59:48;;;;;;;6.90;5.20;;;28.60;39.30;;;;;;4972772;28;20458;-85
2023/04/19 08:05:14;;;;;;;4.23;3.93;;;25.30;42.50;;;;;;5160765;23;20495;-85
2023/04/19 08:07:55;;;;;;;6.27;5.17;;;25.10;43.50;;;;;;5011031;28;20464;-86
2023/04/19 08:10:27;;;;;;;4.53;4.13;;;26.30;42.00;;;;;;4979825;28;20452;-83
2023/04/19 08:12:55;;;;;;;4.80;4.40;;;26.50;40.60;;;;;;4974103;28;20456;-84
2023/04/19 08:15:43;;;;;;;4.57;4.23;;;26.60;40.10;;;;;;5005342;28;20470;-83
2023/04/19 08:18:28;;;;;;;5.30;4.80;;;26.80;39.80;;;;;;4988107;28;20456;-85
2023/04/19 08:21:04;;;;;;;5.33;4.93;;;27.40;38.90;;;;;;4962046;28;20463;-83
2023/04/19 08:24:25;;;;;;;5.17;4.77;;;27.80;38.20;;;;;;4970873;28;20463;-83
2023/04/19 08:27:01;;;;;;;5.07;4.63;;;28.10;38.00;;;;;;4936587;28;20516;-84
2023/04/19 08:29:42;;;;;;;5.10;4.70;;;29.00;36.10;;;;;;4960568;28;20470;-84
2023/04/19 08:33:02;;;;;;;5.70;5.20;;;29.10;35.80;;;;;;4962744;28;20906;-83
2023/04/19 08:35:52;;;;;;;4.77;4.30;;;29.50;34.90;;;;;;4962117;28;20486;-84
2023/04/19 08:38:42;;;;;;;5.07;4.63;;;29.20;35.20;;;;;;4887182;29;20526;-82
2023/04/19 08:41:23;;;;;;;4.93;4.53;;;29.40;35.00;;;;;;4899692;29;20459;-84
2023/04/19 08:44:13;;;;;;;4.70;4.30;;;29.70;33.80;;;;;;4901949;29;20467;-82
2023/04/19 08:47:24;;;;;;;4.80;4.17;;;29.70;33.90;;;;;;4898784;29;21156;-82
2023/04/19 08:50:20;;;;;;;5.00;4.50;;;30.10;32.90;;;;;;4904702;29;20520;-83
2023/04/19 08:53:48;;;;;;;5.07;4.60;;;29.60;33.20;;;;;;4915690;29;20444;-83
2023/04/19 08:56:45;;;;;;;5.00;3.83;;;29.40;31.70;;;;;;4882113;29;20470;-82
2023/04/19 08:59:49;;;;;;;4.77;4.37;;;28.90;32.00;;;;;;4887114;29;21276;-82
2023/04/19 09:02:54;;;;;;;4.80;4.40;;;29.30;31.40;;;;;;4918611;28;20531;-83
2023/04/19 09:05:52;;;;;;;4.73;4.33;;;29.70;30.60;;;;;;4926191;28;20584;-82
2023/04/19 09:16:10;;;;;;;5.50;4.70;;;28.70;31.70;;;;;;4949976;28;20449;-83
2023/04/19 09:19:20;;;;;;;6.50;5.23;;;28.80;31.60;;;;;;4921687;29;20462;-84
2023/04/19 09:21:59;;;;;;;4.50;4.10;;;29.30;30.70;;;;;;4922110;29;20517;-84
2023/04/19 09:28:55;;;;;;;3.90;3.60;;;28.60;30.00;;;;;;4903196;28;20846;-83
2023/04/19 09:32:11;;;;;;;4.57;4.17;;;28.40;30.00;;;;;;4832222;29;20441;-83
2023/04/19 09:35:24;;;;;;;4.03;3.63;;;27.70;29.90;;;;;;4846244;29;21255;-84
2023/04/19 09:38:13;;;;;;;4.43;3.83;;;27.30;30.90;;;;;;4843830;29;20477;-83
2023/04/19 09:41:16;;;;;;;4.00;3.53;;;27.30;30.60;;;;;;4843648;29;20458;-84
2023/04/19 09:44:17;;;;;;;4.40;4.10;;;27.30;30.10;;;;;;4995635;23;20698;-86
2023/04/19 09:47:28;;;;;;;6.00;4.00;;;27.20;30.80;;;;;;4963663;28;21210;-86
2023/04/19 09:50:41;;;;;;;6.23;4.27;;;27.00;30.10;;;;;;4965854;28;21257;-82
2023/04/19 09:53:32;;;;;;;11.83;6.63;;;27.40;30.00;;;;;;4964958;28;20497;-82
2023/04/19 09:56:11;;;;;;;4.10;3.80;;;27.30;30.00;;;;;;4949924;28;20452;-83
2023/04/19 09:58:53;;;;;;;5.70;4.07;;;26.90;29.70;;;;;;4959530;28;20547;-85
2023/04/19 10:02:05;;;;;;;6.10;4.50;;;26.60;29.70;;;;;;4961772;28;20817;-83
2023/04/19 10:04:49;;;;;;;6.17;3.70;;;26.10;31.00;;;;;;4967189;28;20573;-84
2023/04/19 10:07:49;;;;;;;4.47;4.07;;;26.20;30.80;;;;;;4947232;28;20469;-84
2023/04/19 10:10:30;;;;;;;4.03;3.73;;;25.50;30.60;;;;;;4941421;28;20511;-84
2023/04/19 10:13:27;;;;;;;3.73;3.43;;;25.50;30.80;;;;;;4946427;28;20515;-83
2023/04/19 10:16:11;;;;;;;4.43;4.00;;;25.50;30.60;;;;;;4963518;28;20487;-85
2023/04/19 10:19:13;;;;;;;5.27;3.50;;;26.00;30.60;;;;;;4975038;28;20518;-84
2023/04/19 10:22:06;;;;;;;5.67;3.70;;;26.60;30.40;;;;;;4972805;28;20485;-83
2023/04/19 10:24:35;;;;;;;3.50;3.20;;;26.60;30.00;;;;;;4953621;28;20450;-86
2023/04/19 10:27:12;;;;;;;4.00;3.60;;;26.10;30.20;;;;;;4973504;28;20531;-85
2023/04/19 10:30:05;;;;;;;3.80;3.40;;;25.70;30.40;;;;;;4962150;28;20444;-83
2023/04/19 10:32:50;;;;;;;4.37;3.70;;;24.90;31.80;;;;;;4958678;28;20558;-83
2023/04/19 10:35:31;;;;;;;3.57;2.97;;;25.00;31.40;;;;;;4957145;28;22206;-84
2023/04/19 10:38:15;;;;;;;3.60;3.30;;;25.60;31.90;;;;;;4972326;28;20479;-83
2023/04/19 10:41:00;;;;;;;4.43;3.60;;;26.20;31.20;;;;;;4963354;28;20456;-85
2023/04/19 10:44:04;;;;;;;3.47;3.20;;;26.00;30.90;;;;;;4961337;28;20524;-83
2023/04/19 10:46:36;;;;;;;3.67;3.37;;;26.20;30.70;;;;;;4946268;28;20540;-83
2023/04/19 10:49:22;;;;;;;3.63;3.40;;;26.20;30.50;;;;;;4970780;28;20531;-85
2023/04/19 10:51:56;;;;;;;6.57;4.17;;;25.80;30.90;;;;;;4960142;28;20467;-84
2023/04/19 10:54:41;;;;;;;4.00;3.70;;;25.70;31.10;;;;;;4962687;28;20458;-85
2023/04/19 10:57:50;;;;;;;3.20;2.83;;;25.80;31.10;;;;;;4971070;28;20504;-83
2023/04/19 11:00:30;;;;;;;3.10;2.77;;;25.80;30.80;;;;;;4955227;28;20467;-85
2023/04/19 11:03:42;;;;;;;3.00;2.80;;;26.00;30.70;;;;;;4957189;28;20473;-84
2023/04/19 11:06:27;;;;;;;3.87;3.53;;;25.90;30.20;;;;;;4971972;28;20499;-85
2023/04/19 11:09:30;;;;;;;3.13;2.93;;;26.10;30.00;;;;;;4974000;28;20775;-84
2023/04/19 11:13:04;;;;;;;;;;;;;;;;;;;;;
2023/04/19 11:15:44;;;;;;;2.73;2.53;;;25.80;29.60;;;;;;4940788;28;20492;-83
2023/04/19 11:18:37;;;;;;;3.13;2.90;;;24.80;30.00;;;;;;4964763;28;20869;-83
2023/04/19 11:21:31;;;;;;;2.90;2.70;;;24.50;30.50;;;;;;4966305;28;20545;-84
2023/04/19 11:24:21;;;;;;;3.00;2.80;;;24.60;30.30;;;;;;4975420;28;20532;-83
2023/04/19 11:26:48;;;;;;;3.80;3.10;;;24.90;31.40;;;;;;4966349;28;20483;-84
2023/04/19 11:29:15;;;;;;;3.33;3.03;;;25.00;30.00;;;;;;4967180;28;20456;-86
2023/04/19 11:31:45;;;;;;;4.27;3.30;;;25.10;31.10;;;;;;4973817;28;20538;-84
2023/04/19 11:34:13;;;;;;;3.77;3.47;;;24.90;30.00;;;;;;4980869;28;20507;-84
2023/04/19 11:36:50;;;;;;;3.90;3.20;;;24.60;29.90;;;;;;5008253;23;20495;-84
2023/04/19 11:39:46;;;;;;;3.07;2.83;;;24.30;31.80;;;;;;4983396;28;20567;-85
2023/04/19 11:45:49;;;;;;;4.50;3.30;;;24.70;30.50;;;;;;4975210;28;20464;-85
2023/04/19 11:52:31;;;;;;;;;;;;;;;;;;;;;
2023/04/19 11:55:27;;;;;;;3.27;2.97;;;25.20;30.40;;;;;;4966522;28;20437;-85
2023/04/19 11:58:08;;;;;;;2.80;2.53;;;25.40;29.80;;;;;;4990103;28;20472;-86
2023/04/19 12:04:51;;;;;;;3.47;2.70;;;25.00;29.50;;;;;;4933642;28;20453;-85
2023/04/19 12:08:14;;;;;;;3.37;2.80;;;25.20;29.70;;;;;;4965107;28;20504;-85
2023/04/19 12:15:10;;;;;;;2.70;2.50;;;24.00;29.10;;;;;;4946166;29;20479;-84
2023/04/19 12:18:32;;;;;;;2.93;2.40;;;23.80;29.50;;;;;;4892190;29;20525;-85
2023/04/19 12:21:34;;;;;;;2.53;2.30;;;23.70;28.90;;;;;;4898638;28;20547;-86
2023/04/19 12:24:05;;;;;;;2.10;1.90;;;23.60;28.90;;;;;;4951475;29;20464;-86
2023/04/19 12:27:01;;;;;;;2.83;2.00;;;23.40;28.40;;;;;;4950103;28;20550;-87
2023/04/19 12:29:40;;;;;;;2.53;2.20;;;23.00;28.60;;;;;;4983774;28;20444;-84
2023/04/19 12:32:22;;;;;;;3.00;2.47;;;22.70;29.10;;;;;;4952309;28;20472;-85
2023/04/19 12:34:56;;;;;;;2.57;2.17;;;22.60;29.40;;;;;;4951285;28;20460;-83
2023/04/19 12:37:41;;;;;;;5.07;2.33;;;22.30;28.70;;;;;;4964531;28;20590;-85
2023/04/19 12:40:31;;;;;;;2.53;2.33;;;22.30;29.60;;;;;;4952113;29;20448;-85
2023/04/19 12:43:09;;;;;;;2.40;2.20;;;22.70;29.00;;;;;;4952436;28;20551;-85
2023/04/19 12:45:48;;;;;;;2.47;2.27;;;22.80;29.30;;;;;;4954692;29;20550;-85
2023/04/19 12:48:39;;;;;;;2.80;2.20;;;23.10;29.70;;;;;;4951543;29;20810;-85
2023/04/19 12:51:38;;;;;;;10.53;3.23;;;22.90;29.50;;;;;;4948480;28;20461;-85
2023/04/19 12:54:25;;;;;;;3.13;2.50;;;23.00;29.00;;;;;;4948516;28;20937;-85
2023/04/19 12:57:17;;;;;;;2.87;2.67;;;22.80;28.90;;;;;;4947720;28;21044;-85
2023/04/19 13:00:26;;;;;;;4.33;3.33;;;23.00;28.40;;;;;;4945984;28;20483;-84
2023/04/19 13:03:16;;;;;;;2.80;2.60;;;23.10;28.00;;;;;;4927470;29;20515;-86
2023/04/19 13:06:02;;;;;;;2.87;2.50;;;22.90;28.50;;;;;;4949480;28;20540;-86
2023/04/19 13:09:09;;;;;;;5.83;2.93;;;22.90;27.90;;;;;;4947390;28;20464;-84
2023/04/19 13:11:56;;;;;;;2.53;2.33;;;23.30;28.10;;;;;;4949531;28;20531;-83
2023/04/19 13:15:04;;;;;;;2.70;2.50;;;23.40;27.50;;;;;;4943253;28;20464;-84
2023/04/19 13:18:21;;;;;;;2.63;2.43;;;23.10;27.60;;;;;;4944170;28;20472;-82
2023/04/19 13:21:00;;;;;;;7.20;3.13;;;22.80;27.30;;;;;;4938815;28;20487;-84
2023/04/19 13:23:45;;;;;;;3.80;2.60;;;22.70;27.20;;;;;;4964473;28;20516;-84
2023/04/19 13:26:30;;;;;;;2.87;2.67;;;22.90;27.20;;;;;;4942481;28;20555;-84
2023/04/19 13:29:21;;;;;;;2.80;2.60;;;23.30;27.00;;;;;;4980072;28;20529;-83
2023/04/19 13:32:32;;;;;;;3.40;3.10;;;23.40;27.20;;;;;;4955619;28;20468;-82
2023/04/19 13:35:20;;;;;;;5.80;2.77;;;23.30;27.10;;;;;;4948142;28;20483;-86
2023/04/19 13:38:03;;;;;;;4.20;2.90;;;23.30;27.00;;;;;;4964558;28;20559;-84
2023/04/19 13:41:00;;;;;;;3.67;3.37;;;23.40;26.20;;;;;;4946834;28;20461;-85
2023/04/19 13:43:59;;;;;;;4.17;2.70;;;23.10;26.40;;;;;;4962870;28;20479;-86
2023/04/19 13:46:41;;;;;;;3.90;2.80;;;23.20;26.00;;;;;;4947021;28;20499;-86
2023/04/19 13:49:29;;;;;;;3.57;2.63;;;23.10;25.80;;;;;;4945253;29;20471;-85
2023/04/19 13:52:14;;;;;;;5.93;3.10;;;22.80;26.00;;;;;;4944063;28;20969;-84
2023/04/19 13:54:48;;;;;;;4.17;3.50;;;23.00;26.10;;;;;;4949707;28;20445;-87
2023/04/19 13:57:34;;;;;;;4.40;2.90;;;22.80;26.40;;;;;;4951448;28;20584;-83
2023/04/19 14:00:23;;;;;;;3.87;3.33;;;22.80;26.30;;;;;;4958074;28;20537;-83
2023/04/19 14:03:07;;;;;;;2.97;2.43;;;22.50;26.10;;;;;;4956700;29;20527;-84
2023/04/19 14:05:45;;;;;;;2.70;2.50;;;22.60;25.80;;;;;;4979593;28;20475;-84
2023/04/19 14:08:15;;;;;;;4.97;3.23;;;22.50;26.90;;;;;;4950441;29;20480;-85
2023/04/19 14:10:45;;;;;;;7.53;2.87;;;22.70;26.40;;;;;;4983724;28;20457;-83
2023/04/19 14:13:22;;;;;;;3.70;3.30;;;22.40;26.00;;;;;;4961358;28;20475;-84
2023/04/19 14:15:50;;;;;;;3.03;2.70;;;22.10;27.20;;;;;;4954751;28;20547;-84
2023/04/19 14:18:18;;;;;;;4.07;3.27;;;21.90;26.70;;;;;;4968803;28;20491;-84
2023/04/19 14:20:51;;;;;;;5.07;3.43;;;22.10;26.70;;;;;;4954237;29;20492;-84
2023/04/19 14:23:32;;;;;;;3.33;3.03;;;21.70;27.60;;;;;;4966883;28;20500;-85
2023/04/19 14:25:59;;;;;;;4.53;3.20;;;21.40;27.00;;;;;;4971695;28;20480;-87
2023/04/19 14:28:35;;;;;;;7.63;3.60;;;21.20;27.50;;;;;;4969533;28;20457;-86
2023/04/19 14:31:02;;;;;;;3.20;2.90;;;21.30;27.30;;;;;;4967598;28;20480;-85
2023/04/19 14:33:32;;;;;;;3.43;3.23;;;21.30;27.10;;;;;;4963388;28;20457;-85
2023/04/19 14:36:00;;;;;;;3.33;3.03;;;21.20;27.30;;;;;;4964146;29;20472;-84
2023/04/19 14:38:29;;;;;;;4.00;3.20;;;21.00;27.50;;;;;;4965802;28;20475;-86
2023/04/19 14:41:16;;;;;;;5.17;3.10;;;20.90;27.30;;;;;;4970368;28;20468;-85
2023/04/19 14:44:00;;;;;;;3.47;2.83;;;20.80;27.30;;;;;;4968295;28;20512;-83
2023/04/19 14:46:29;;;;;;;4.80;2.70;;;20.80;27.00;;;;;;4969309;28;21456;-84
2023/04/19 14:49:04;;;;;;;3.60;3.30;;;20.70;26.70;;;;;;4967554;28;20451;-85
2023/04/19 14:51:33;;;;;;;3.50;2.93;;;20.50;25.90;;;;;;4968096;28;20479;-85
2023/04/19 14:54:00;;;;;;;3.57;3.00;;;20.60;26.90;;;;;;4969157;28;20445;-84
2023/04/19 14:56:50;;;;;;;4.40;3.07;;;20.40;26.20;;;;;;4967432;28;20480;-83
2023/04/19 14:59:41;;;;;;;3.97;3.00;;;20.30;26.80;;;;;;4967663;28;20444;-84